createdAt,value
2023-05-17T00:04:38.664Z,98300.03
2023-05-17T00:14:42.422Z,98306.19
2023-05-17T00:24:47.384Z,98320.27
2023-05-17T00:34:54.579Z,98324.75
2023-05-17T00:44:57.998Z,98320.73
2023-05-17T00:55:01.941Z,98328.98
2023-05-17T01:05:06.870Z,98337.96
2023-05-17T01:15:14.726Z,98342.73
2023-05-17T01:25:27.894Z,98341.23
2023-05-17T01:35:31.705Z,98330.52
2023-05-17T01:45:39.402Z,98321.44
2023-05-17T01:55:48.441Z,98314.38
2023-05-17T02:05:52.056Z,98315.64
2023-05-17T02:16:00.021Z,98320.52
2023-05-17T02:26:03.824Z,98331.60
2023-05-17T02:36:07.056Z,98334.09
2023-05-17T02:46:10.671Z,98353.70
2023-05-17T02:56:14.132Z,98368.48
2023-05-17T03:06:17.738Z,98357.69
2023-05-17T03:16:21.324Z,98364.78
2023-05-17T03:26:25.027Z,98366.14
2023-05-17T03:36:28.671Z,98387.10
2023-05-17T03:46:32.816Z,98397.60
2023-05-17T03:56:37.050Z,98406.44
2023-05-17T04:06:41.643Z,98406.36
2023-05-17T04:16:46.065Z,98387.98
2023-05-17T04:26:49.637Z,98403.77
2023-05-17T04:36:53.237Z,98423.36
2023-05-17T04:46:57.369Z,98437.68
2023-05-17T04:57:01.124Z,98452.91
2023-05-17T05:07:08.969Z,98468.38
2023-05-17T05:17:12.862Z,98476.29
2023-05-17T05:27:16.865Z,98474.48
2023-05-17T05:37:20.626Z,98476.68
2023-05-17T05:47:26.152Z,98470.64
2023-05-17T05:57:30.713Z,98471.77
2023-05-17T06:07:34.478Z,98496.88
2023-05-17T06:17:40.132Z,98532.39
2023-05-17T06:27:43.832Z,98549.85
2023-05-17T06:37:47.541Z,98547.37
2023-05-17T06:47:51.139Z,98552.61
2023-05-17T06:57:55.449Z,98570.28
2023-05-17T07:07:59.071Z,98585.19
2023-05-17T07:18:02.827Z,98593.95
2023-05-17T07:28:07.793Z,98598.40
2023-05-17T07:38:11.502Z,98604.10
2023-05-17T07:48:15.424Z,98611.65
2023-05-17T07:58:22.790Z,98604.20
2023-05-17T08:08:26.490Z,98600.29
2023-05-17T08:18:30.513Z,98613.77
2023-05-17T08:28:34.545Z,98627.39
2023-05-17T08:38:38.452Z,98632.25
2023-05-17T08:48:44.338Z,98649.21
2023-05-17T08:58:56.979Z,98657.33
2023-05-17T09:09:01.916Z,98668.15
2023-05-17T09:19:08.334Z,98673.29
2023-05-17T09:29:12.066Z,98664.17
2023-05-17T09:39:17.186Z,98670.50
2023-05-17T09:49:21.146Z,98686.09
2023-05-17T09:59:29.633Z,98698.53
2023-05-17T10:09:36.697Z,98714.36
2023-05-17T10:19:41.825Z,98725.21
2023-05-17T10:29:50.168Z,98729.41
2023-05-17T10:39:56.349Z,98716.47
2023-05-17T10:50:11.393Z,98719.58
2023-05-17T11:00:19.355Z,98728.76
2023-05-17T11:10:23.765Z,98743.71
2023-05-17T11:20:35.081Z,98747.49
2023-05-17T11:30:42.364Z,98752.89
2023-05-17T11:40:46.985Z,98767.28
2023-05-17T11:50:54.124Z,98783.67
2023-05-17T12:00:58.708Z,98794.64
2023-05-17T12:11:03.441Z,98805.60
2023-05-17T12:21:08.444Z,98809.83
2023-05-17T12:31:14.728Z,98812.11
2023-05-17T12:41:19.499Z,98817.80
2023-05-17T12:51:24.188Z,98826.45
2023-05-17T13:01:33.040Z,98835.89
2023-05-17T13:11:37.184Z,98841.52
2023-05-17T13:21:41.032Z,98842.13
2023-05-17T13:31:45.096Z,98852.84
2023-05-17T13:41:50.795Z,98866.59
2023-05-17T13:51:56.032Z,98875.56
2023-05-17T14:01:59.940Z,98882.17
2023-05-17T14:12:04.756Z,98887.63
2023-05-17T14:22:08.381Z,98898.73
2023-05-17T14:42:19.587Z,98911.15
2023-05-17T14:52:23.556Z,98914.55
2023-05-17T15:02:31.830Z,98925.64
2023-05-17T15:12:35.988Z,98927.59
2023-05-17T15:22:40.305Z,98933.08
2023-05-17T15:42:47.783Z,98939.09
2023-05-17T15:52:55.339Z,98947.25
2023-05-17T16:02:59.456Z,98954.84
2023-05-17T16:13:03.922Z,98956.14
2023-05-17T16:23:07.936Z,98971.84
2023-05-17T16:33:16.292Z,98983.49
2023-05-17T16:43:24.523Z,98993.39
2023-05-17T16:53:28.611Z,99005.81
2023-05-17T17:03:32.870Z,99013.39
2023-05-17T17:13:36.102Z,99011.17
2023-05-17T17:23:40.257Z,99014.09
2023-05-17T17:43:48.821Z,99033.29
2023-05-17T17:53:52.607Z,99037.76
2023-05-17T18:03:58.335Z,99044.27
2023-05-17T18:14:01.937Z,99051.05
2023-05-17T18:24:04.346Z,99058.77
2023-05-17T18:34:07.939Z,99077.22
2023-05-17T18:44:16.939Z,99077.80
2023-05-17T18:54:21.929Z,99084.17
2023-05-17T19:04:25.750Z,99098.55
2023-05-17T19:14:31.520Z,99092.42
2023-05-17T19:24:35.580Z,99093.72
2023-05-17T19:34:39.978Z,99100.52
2023-05-17T19:44:43.630Z,99104.33
2023-05-17T19:54:47.433Z,99119.27
2023-05-17T20:04:54.816Z,99127.77
2023-05-17T20:15:05.431Z,99128.58
2023-05-17T20:25:09.606Z,99135.91
2023-05-17T20:35:13.239Z,99137.69
2023-05-17T20:45:17.263Z,99148.64
2023-05-17T20:55:21.068Z,99159.80
2023-05-17T21:05:25.220Z,99160.59
2023-05-17T21:15:29.152Z,99170.02
2023-05-17T21:25:33.724Z,99170.85
2023-05-17T21:35:37.541Z,99182.08
2023-05-17T21:45:41.333Z,99188.83
2023-05-17T21:56:00.771Z,99191.91
2023-05-17T22:06:06.452Z,99191.73
2023-05-17T22:16:10.399Z,99188.45
2023-05-17T22:26:17.684Z,99197.34
2023-05-17T22:36:24.020Z,99207.98
2023-05-17T22:46:27.600Z,99207.33
2023-05-17T22:56:34.482Z,99213.69
2023-05-17T23:06:41.827Z,99215.55
2023-05-17T23:16:45.301Z,99223.02
2023-05-17T23:26:49.544Z,99225.08
2023-05-17T23:36:53.577Z,99221.91
2023-05-17T23:46:57.742Z,99221.69
2023-05-17T23:57:02.060Z,99227.98
